QFA45 YMML-YSSY
Flight info
| Callsign | QFA45 |
|---|---|
| Flight time | 1h 15m |
| Altitude | 39000 |
| Route | DCT ML H129 DOSEL Y59 RIVET RIVET4 |
| Aircraft | B737/M-V/N |
Departure
| Time | 2026-05-08 07:07 |
|---|---|
| Airport | Melbourne Airport (YMML) |
Arrival
| Time | 2026-05-08 08:22 |
|---|---|
| Airport | Sydney Kingsford Smith International Airport (YSSY) |
| Time | Latitude | Longitude | Altitude | Speed | Heading |
|---|---|---|---|---|---|
| 2026-05-08 06:38 | -37.67133 | 144.84708 | 355 ft | 0 kts | 30° |
| 2026-05-08 06:52 | -37.67134 | 144.84708 | 355 ft | 1 kts | 30° |
| 2026-05-08 06:53 | -37.67148 | 144.84699 | 357 ft | 3 kts | 21° |
| 2026-05-08 06:53 | -37.67166 | 144.84692 | 359 ft | 3 kts | 1° |
| 2026-05-08 06:53 | -37.67184 | 144.84694 | 362 ft | 3 kts | 320° |
| 2026-05-08 06:53 | -37.67191 | 144.84706 | 363 ft | 2 kts | 264° |
| 2026-05-08 06:54 | -37.67191 | 144.84708 | 363 ft | 1 kts | 262° |
| 2026-05-08 06:57 | -37.67192 | 144.84698 | 362 ft | 3 kts | 262° |
| 2026-05-08 06:57 | -37.67197 | 144.84648 | 363 ft | 8 kts | 262° |
| 2026-05-08 06:58 | -37.67206 | 144.84568 | 363 ft | 11 kts | 262° |
| 2026-05-08 06:58 | -37.67202 | 144.84461 | 368 ft | 14 kts | 283° |
| 2026-05-08 06:58 | -37.67203 | 144.84324 | 367 ft | 17 kts | 275° |
| 2026-05-08 06:58 | -37.67116 | 144.84254 | 370 ft | 17 kts | 351° |
| 2026-05-08 06:59 | -37.66986 | 144.84230 | 373 ft | 20 kts | 351° |
| 2026-05-08 06:59 | -37.66836 | 144.84203 | 375 ft | 23 kts | 352° |
| 2026-05-08 06:59 | -37.66710 | 144.84212 | 375 ft | 18 kts | 45° |
| 2026-05-08 06:59 | -37.66679 | 144.84386 | 366 ft | 24 kts | 81° |
| 2026-05-08 07:00 | -37.66651 | 144.84627 | 355 ft | 31 kts | 82° |
| 2026-05-08 07:00 | -37.66589 | 144.84798 | 335 ft | 16 kts | 18° |
| 2026-05-08 07:00 | -37.66467 | 144.84779 | 331 ft | 20 kts | 359° |
| 2026-05-08 07:00 | -37.66339 | 144.84784 | 328 ft | 10 kts | 1° |
| 2026-05-08 07:01 | -37.66317 | 144.84784 | 331 ft | 0 kts | 360° |
| 2026-05-08 07:02 | -37.66306 | 144.84784 | 331 ft | 6 kts | 360° |
| 2026-05-08 07:02 | -37.66239 | 144.84754 | 333 ft | 14 kts | 315° |
| 2026-05-08 07:03 | -37.66219 | 144.84680 | 338 ft | 0 kts | 274° |
| 2026-05-08 07:06 | -37.66219 | 144.84678 | 338 ft | 2 kts | 274° |
| 2026-05-08 07:06 | -37.66204 | 144.84415 | 355 ft | 71 kts | 274° |
| 2026-05-08 07:06 | -37.66150 | 144.83464 | 404 ft | 143 kts | 274° |
| 2026-05-08 07:06 | -37.66080 | 144.82059 | 922 ft | 165 kts | 269° |
| 2026-05-08 07:07 | -37.66002 | 144.80577 | 1835 ft | 174 kts | 269° |
| 2026-05-08 07:07 | -37.65899 | 144.79128 | 2623 ft | 156 kts | 268° |
| 2026-05-08 07:07 | -37.65814 | 144.77824 | 3286 ft | 141 kts | 265° |
| 2026-05-08 07:07 | -37.65743 | 144.76648 | 3955 ft | 128 kts | 263° |
| 2026-05-08 07:08 | -37.65680 | 144.75545 | 4487 ft | 123 kts | 264° |
| 2026-05-08 07:08 | -37.65621 | 144.74491 | 4959 ft | 120 kts | 262° |
| 2026-05-08 07:08 | -37.65566 | 144.73335 | 5096 ft | 150 kts | 264° |
| 2026-05-08 07:08 | -37.65487 | 144.71937 | 5345 ft | 177 kts | 265° |
| 2026-05-08 07:09 | -37.65390 | 144.70213 | 5448 ft | 216 kts | 267° |
| 2026-05-08 07:09 | -37.65233 | 144.68193 | 5825 ft | 242 kts | 277° |
| 2026-05-08 07:09 | -37.64473 | 144.66249 | 6765 ft | 253 kts | 303° |
| 2026-05-08 07:09 | -37.63073 | 144.64837 | 7607 ft | 266 kts | 331° |
| 2026-05-08 07:10 | -37.61287 | 144.64060 | 8292 ft | 279 kts | 339° |
| 2026-05-08 07:10 | -37.59360 | 144.63377 | 8802 ft | 296 kts | 341° |
| 2026-05-08 07:10 | -37.57340 | 144.62663 | 9421 ft | 307 kts | 343° |
| 2026-05-08 07:10 | -37.55183 | 144.62541 | 10207 ft | 318 kts | 9° |
| 2026-05-08 07:11 | -37.53136 | 144.63610 | 10933 ft | 323 kts | 38° |
| 2026-05-08 07:11 | -37.51569 | 144.65625 | 11665 ft | 323 kts | 54° |
| 2026-05-08 07:11 | -37.50654 | 144.67111 | 12155 ft | 325 kts | 57° |
| 2026-05-08 07:11 | -37.49316 | 144.69425 | 12903 ft | 328 kts | 57° |
| 2026-05-08 07:12 | -37.47948 | 144.71747 | 13619 ft | 332 kts | 56° |
| 2026-05-08 07:12 | -37.46700 | 144.74232 | 14129 ft | 342 kts | 63° |
| 2026-05-08 07:12 | -37.45476 | 144.76882 | 14485 ft | 357 kts | 63° |
| 2026-05-08 07:12 | -37.44215 | 144.79628 | 14972 ft | 367 kts | 63° |
| 2026-05-08 07:13 | -37.42934 | 144.82428 | 15574 ft | 372 kts | 63° |
| 2026-05-08 07:13 | -37.41632 | 144.85268 | 16212 ft | 377 kts | 63° |
| 2026-05-08 07:13 | -37.40311 | 144.88140 | 16877 ft | 380 kts | 63° |
| 2026-05-08 07:13 | -37.38981 | 144.91033 | 17555 ft | 384 kts | 63° |
| 2026-05-08 07:14 | -37.37638 | 144.93951 | 18242 ft | 387 kts | 63° |
| 2026-05-08 07:14 | -37.36283 | 144.96895 | 18852 ft | 390 kts | 63° |
| 2026-05-08 07:14 | -37.34930 | 144.99833 | 19278 ft | 398 kts | 63° |
| 2026-05-08 07:14 | -37.33521 | 145.02888 | 19551 ft | 410 kts | 63° |
| 2026-05-08 07:15 | -37.32062 | 145.06050 | 19740 ft | 425 kts | 62° |
| 2026-05-08 07:15 | -37.30557 | 145.09304 | 20061 ft | 435 kts | 62° |
| 2026-05-08 07:15 | -37.29022 | 145.12618 | 20476 ft | 442 kts | 62° |
| 2026-05-08 07:15 | -37.27466 | 145.15977 | 20948 ft | 447 kts | 62° |
| 2026-05-08 07:16 | -37.25889 | 145.19380 | 21439 ft | 452 kts | 62° |
| 2026-05-08 07:16 | -37.24301 | 145.22802 | 21940 ft | 455 kts | 62° |
| 2026-05-08 07:16 | -37.22701 | 145.26246 | 22444 ft | 459 kts | 62° |
| 2026-05-08 07:16 | -37.21085 | 145.29720 | 22962 ft | 461 kts | 62° |
| 2026-05-08 07:17 | -37.19484 | 145.33158 | 23469 ft | 464 kts | 62° |
| 2026-05-08 07:17 | -37.17847 | 145.36670 | 23954 ft | 467 kts | 62° |
| 2026-05-08 07:17 | -37.16159 | 145.40161 | 24372 ft | 471 kts | 58° |
| 2026-05-08 07:17 | -37.14255 | 145.43523 | 24795 ft | 474 kts | 57° |
| 2026-05-08 07:18 | -37.12301 | 145.46882 | 25194 ft | 478 kts | 57° |
| 2026-05-08 07:18 | -37.10340 | 145.50273 | 25591 ft | 481 kts | 57° |
| 2026-05-08 07:18 | -37.08385 | 145.53702 | 25990 ft | 484 kts | 57° |
| 2026-05-08 07:18 | -37.06419 | 145.57142 | 26372 ft | 488 kts | 57° |
| 2026-05-08 07:19 | -37.04425 | 145.60597 | 26842 ft | 489 kts | 57° |
| 2026-05-08 07:19 | -37.02460 | 145.63991 | 27365 ft | 488 kts | 57° |
| 2026-05-08 07:19 | -37.00476 | 145.67434 | 27888 ft | 487 kts | 57° |
| 2026-05-08 07:19 | -36.98497 | 145.70874 | 28400 ft | 486 kts | 57° |
| 2026-05-08 07:20 | -36.96513 | 145.74307 | 28910 ft | 486 kts | 57° |
| 2026-05-08 07:20 | -36.94530 | 145.77728 | 29411 ft | 485 kts | 57° |
| 2026-05-08 07:20 | -36.92553 | 145.81141 | 29926 ft | 485 kts | 57° |
| 2026-05-08 07:20 | -36.90576 | 145.84555 | 30394 ft | 484 kts | 57° |
| 2026-05-08 07:21 | -36.88602 | 145.87959 | 30795 ft | 484 kts | 57° |
| 2026-05-08 07:21 | -36.86626 | 145.91361 | 31187 ft | 483 kts | 58° |
| 2026-05-08 07:21 | -36.84644 | 145.94769 | 31473 ft | 485 kts | 58° |
| 2026-05-08 07:21 | -36.82653 | 145.98194 | 31710 ft | 488 kts | 58° |
| 2026-05-08 07:22 | -36.80650 | 146.01633 | 31995 ft | 491 kts | 58° |
| 2026-05-08 07:22 | -36.78640 | 146.05077 | 32310 ft | 492 kts | 58° |
| 2026-05-08 07:22 | -36.76619 | 146.08538 | 32613 ft | 494 kts | 58° |
| 2026-05-08 07:22 | -36.74620 | 146.11961 | 32916 ft | 495 kts | 58° |
| 2026-05-08 07:23 | -36.72591 | 146.15431 | 33266 ft | 495 kts | 58° |
| 2026-05-08 07:23 | -36.70554 | 146.18907 | 33628 ft | 495 kts | 58° |
| 2026-05-08 07:23 | -36.68521 | 146.22376 | 33995 ft | 495 kts | 58° |
| 2026-05-08 07:23 | -36.66489 | 146.25840 | 34353 ft | 495 kts | 58° |
| 2026-05-08 07:24 | -36.64460 | 146.29294 | 34710 ft | 494 kts | 58° |
| 2026-05-08 07:24 | -36.62432 | 146.32743 | 35071 ft | 493 kts | 57° |
| 2026-05-08 07:24 | -36.60407 | 146.36184 | 35415 ft | 493 kts | 57° |
| 2026-05-08 07:24 | -36.58379 | 146.39627 | 35760 ft | 492 kts | 57° |
| 2026-05-08 07:25 | -36.56351 | 146.43067 | 36101 ft | 491 kts | 57° |
| 2026-05-08 07:25 | -36.54330 | 146.46489 | 36437 ft | 491 kts | 57° |
| 2026-05-08 07:25 | -36.50306 | 146.53297 | 37035 ft | 490 kts | 56° |
| 2026-05-08 07:26 | -36.48286 | 146.56709 | 37326 ft | 490 kts | 56° |
| 2026-05-08 07:26 | -36.46262 | 146.60123 | 37620 ft | 490 kts | 56° |
| 2026-05-08 07:26 | -36.44244 | 146.63525 | 37894 ft | 488 kts | 56° |
| 2026-05-08 07:27 | -36.40273 | 146.70206 | 37916 ft | 480 kts | 56° |
| 2026-05-08 07:27 | -36.36325 | 146.76840 | 37912 ft | 477 kts | 55° |
| 2026-05-08 07:28 | -36.32378 | 146.83457 | 37912 ft | 477 kts | 55° |
| 2026-05-08 07:28 | -36.28423 | 146.90076 | 37921 ft | 478 kts | 55° |
| 2026-05-08 07:29 | -36.24462 | 146.96691 | 37916 ft | 478 kts | 55° |
| 2026-05-08 07:29 | -36.20498 | 147.03299 | 37915 ft | 478 kts | 55° |
| 2026-05-08 07:30 | -36.16529 | 147.09901 | 37912 ft | 478 kts | 55° |
| 2026-05-08 07:30 | -36.12563 | 147.16487 | 37922 ft | 482 kts | 55° |
| 2026-05-08 07:31 | -36.08559 | 147.23120 | 37917 ft | 480 kts | 55° |
| 2026-05-08 07:31 | -36.04568 | 147.29721 | 37910 ft | 479 kts | 54° |
| 2026-05-08 07:32 | -36.00576 | 147.36311 | 37913 ft | 479 kts | 54° |
| 2026-05-08 07:32 | -35.96571 | 147.42910 | 37924 ft | 482 kts | 54° |
| 2026-05-08 07:33 | -35.92575 | 147.49480 | 37924 ft | 481 kts | 54° |
| 2026-05-08 07:33 | -35.88546 | 147.56093 | 37924 ft | 481 kts | 54° |
| 2026-05-08 07:34 | -35.84519 | 147.62690 | 37924 ft | 481 kts | 54° |
| 2026-05-08 07:34 | -35.80477 | 147.69300 | 37925 ft | 485 kts | 54° |
| 2026-05-08 07:35 | -35.76413 | 147.75929 | 37924 ft | 485 kts | 54° |
| 2026-05-08 07:35 | -35.72343 | 147.82559 | 37928 ft | 485 kts | 54° |
| 2026-05-08 07:36 | -35.68268 | 147.89183 | 37929 ft | 485 kts | 54° |
| 2026-05-08 07:36 | -35.64176 | 147.95822 | 37936 ft | 489 kts | 54° |
| 2026-05-08 07:37 | -35.60095 | 148.02430 | 37934 ft | 489 kts | 54° |
| 2026-05-08 07:37 | -35.55980 | 148.09082 | 37936 ft | 489 kts | 53° |
| 2026-05-08 07:38 | -35.51855 | 148.15735 | 37938 ft | 489 kts | 53° |
| 2026-05-08 07:38 | -35.47731 | 148.22375 | 37941 ft | 490 kts | 53° |
| 2026-05-08 07:39 | -35.43586 | 148.29036 | 37936 ft | 491 kts | 53° |
| 2026-05-08 07:39 | -35.39440 | 148.35685 | 37934 ft | 491 kts | 53° |
| 2026-05-08 07:40 | -35.35290 | 148.42330 | 37937 ft | 492 kts | 53° |
| 2026-05-08 07:40 | -35.31144 | 148.48952 | 37939 ft | 493 kts | 53° |
| 2026-05-08 07:41 | -35.26943 | 148.55653 | 37930 ft | 495 kts | 53° |
| 2026-05-08 07:41 | -35.22741 | 148.62339 | 37924 ft | 495 kts | 53° |
| 2026-05-08 07:42 | -35.18530 | 148.69030 | 37921 ft | 496 kts | 52° |
| 2026-05-08 07:42 | -35.14315 | 148.75711 | 37933 ft | 496 kts | 52° |
| 2026-05-08 07:43 | -35.10090 | 148.82400 | 37917 ft | 498 kts | 52° |
| 2026-05-08 07:43 | -35.05882 | 148.89044 | 37907 ft | 498 kts | 52° |
| 2026-05-08 07:44 | -35.01643 | 148.95729 | 37913 ft | 498 kts | 52° |
| 2026-05-08 07:44 | -34.97391 | 149.02419 | 37915 ft | 498 kts | 52° |
| 2026-05-08 07:45 | -34.93139 | 149.09096 | 37917 ft | 498 kts | 52° |
| 2026-05-08 07:45 | -34.88883 | 149.15768 | 37862 ft | 498 kts | 52° |
| 2026-05-08 07:45 | -34.86758 | 149.19093 | 37361 ft | 496 kts | 52° |
| 2026-05-08 07:46 | -34.84648 | 149.22394 | 36882 ft | 491 kts | 52° |
| 2026-05-08 07:46 | -34.82561 | 149.25654 | 36420 ft | 486 kts | 53° |
| 2026-05-08 07:46 | -34.80493 | 149.28882 | 35968 ft | 481 kts | 53° |
| 2026-05-08 07:46 | -34.78465 | 149.32044 | 35506 ft | 477 kts | 53° |
| 2026-05-08 07:47 | -34.76431 | 149.35215 | 35025 ft | 474 kts | 53° |
| 2026-05-08 07:47 | -34.74422 | 149.38377 | 34526 ft | 471 kts | 57° |
| 2026-05-08 07:47 | -34.72766 | 149.41801 | 34066 ft | 468 kts | 64° |
| 2026-05-08 07:47 | -34.71246 | 149.45304 | 33531 ft | 467 kts | 65° |
| 2026-05-08 07:48 | -34.69739 | 149.48803 | 32996 ft | 467 kts | 64° |
| 2026-05-08 07:48 | -34.68217 | 149.52293 | 32493 ft | 468 kts | 64° |
| 2026-05-08 07:48 | -34.66682 | 149.55785 | 31993 ft | 468 kts | 64° |
| 2026-05-08 07:48 | -34.65172 | 149.59233 | 31510 ft | 469 kts | 64° |
| 2026-05-08 07:49 | -34.63641 | 149.62746 | 31039 ft | 471 kts | 64° |
| 2026-05-08 07:49 | -34.62104 | 149.66260 | 30566 ft | 472 kts | 64° |
| 2026-05-08 07:49 | -34.60554 | 149.69789 | 30039 ft | 473 kts | 64° |
| 2026-05-08 07:49 | -34.59011 | 149.73297 | 29468 ft | 467 kts | 64° |
| 2026-05-08 07:50 | -34.57492 | 149.76756 | 28919 ft | 461 kts | 64° |
| 2026-05-08 07:50 | -34.55993 | 149.80169 | 28378 ft | 456 kts | 64° |
| 2026-05-08 07:50 | -34.54506 | 149.83547 | 27831 ft | 450 kts | 64° |
| 2026-05-08 07:50 | -34.53043 | 149.86864 | 27310 ft | 441 kts | 64° |
| 2026-05-08 07:51 | -34.51627 | 149.90073 | 26822 ft | 434 kts | 64° |
| 2026-05-08 07:51 | -34.50213 | 149.93277 | 26312 ft | 427 kts | 64° |
| 2026-05-08 07:51 | -34.48819 | 149.96431 | 25804 ft | 421 kts | 64° |
| 2026-05-08 07:51 | -34.47445 | 149.99536 | 25311 ft | 415 kts | 64° |
| 2026-05-08 07:52 | -34.46084 | 150.02609 | 24838 ft | 410 kts | 64° |
| 2026-05-08 07:52 | -34.44744 | 150.05633 | 24361 ft | 405 kts | 64° |
| 2026-05-08 07:52 | -34.43416 | 150.08627 | 23878 ft | 400 kts | 64° |
| 2026-05-08 07:52 | -34.42105 | 150.11577 | 23351 ft | 395 kts | 64° |
| 2026-05-08 07:53 | -34.40812 | 150.14491 | 22806 ft | 390 kts | 64° |
| 2026-05-08 07:53 | -34.39537 | 150.17360 | 22267 ft | 383 kts | 64° |
| 2026-05-08 07:53 | -34.38282 | 150.20175 | 21753 ft | 377 kts | 65° |
| 2026-05-08 07:53 | -34.37046 | 150.22952 | 21203 ft | 373 kts | 65° |
| 2026-05-08 07:54 | -34.35835 | 150.25671 | 20650 ft | 369 kts | 65° |
| 2026-05-08 07:54 | -34.34618 | 150.28399 | 20109 ft | 366 kts | 65° |
| 2026-05-08 07:54 | -34.33414 | 150.31095 | 19566 ft | 363 kts | 65° |
| 2026-05-08 07:54 | -34.32216 | 150.33773 | 18997 ft | 360 kts | 65° |
| 2026-05-08 07:55 | -34.31029 | 150.36431 | 18419 ft | 358 kts | 65° |
| 2026-05-08 07:55 | -34.29845 | 150.39079 | 17749 ft | 357 kts | 65° |
| 2026-05-08 07:55 | -34.28604 | 150.41676 | 17098 ft | 357 kts | 56° |
| 2026-05-08 07:55 | -34.26800 | 150.43730 | 16495 ft | 359 kts | 32° |
| 2026-05-08 07:56 | -34.24609 | 150.45158 | 15891 ft | 356 kts | 26° |
| 2026-05-08 07:56 | -34.22402 | 150.46435 | 15312 ft | 355 kts | 24° |
| 2026-05-08 07:56 | -34.20176 | 150.47711 | 14720 ft | 353 kts | 26° |
| 2026-05-08 07:56 | -34.17972 | 150.49030 | 14135 ft | 351 kts | 26° |
| 2026-05-08 07:57 | -34.15792 | 150.50347 | 13500 ft | 349 kts | 26° |
| 2026-05-08 07:57 | -34.13626 | 150.51634 | 13066 ft | 341 kts | 26° |
| 2026-05-08 07:57 | -34.11547 | 150.52861 | 13008 ft | 322 kts | 25° |
| 2026-05-08 07:57 | -34.09573 | 150.54031 | 13008 ft | 315 kts | 26° |
| 2026-05-08 07:58 | -34.07606 | 150.55200 | 13024 ft | 315 kts | 26° |
| 2026-05-08 07:58 | -34.05645 | 150.56364 | 13081 ft | 313 kts | 26° |
| 2026-05-08 07:58 | -34.03694 | 150.57519 | 13157 ft | 317 kts | 26° |
| 2026-05-08 07:58 | -34.01723 | 150.58686 | 13155 ft | 315 kts | 26° |
| 2026-05-08 07:59 | -33.99757 | 150.59850 | 13160 ft | 314 kts | 26° |
| 2026-05-08 07:59 | -33.97797 | 150.61009 | 13163 ft | 314 kts | 26° |
| 2026-05-08 07:59 | -33.95852 | 150.62160 | 13162 ft | 305 kts | 26° |
| 2026-05-08 07:59 | -33.93971 | 150.63272 | 13028 ft | 299 kts | 26° |
| 2026-05-08 08:00 | -33.92737 | 150.64002 | 12846 ft | 298 kts | 26° |
| 2026-05-08 08:00 | -33.90241 | 150.65475 | 12377 ft | 301 kts | 26° |
| 2026-05-08 08:00 | -33.88991 | 150.66212 | 12131 ft | 303 kts | 26° |
| 2026-05-08 08:00 | -33.86469 | 150.67699 | 11646 ft | 306 kts | 26° |
| 2026-05-08 08:01 | -33.85174 | 150.68463 | 11397 ft | 307 kts | 26° |
| 2026-05-08 08:01 | -33.83274 | 150.69583 | 11051 ft | 308 kts | 26° |
| 2026-05-08 08:01 | -33.81353 | 150.70715 | 10704 ft | 308 kts | 26° |
| 2026-05-08 08:01 | -33.79423 | 150.71851 | 10384 ft | 307 kts | 26° |
| 2026-05-08 08:02 | -33.77543 | 150.72957 | 10335 ft | 296 kts | 26° |
| 2026-05-08 08:02 | -33.75706 | 150.74039 | 10165 ft | 291 kts | 25° |
| 2026-05-08 08:02 | -33.73903 | 150.75098 | 10028 ft | 285 kts | 25° |
| 2026-05-08 08:02 | -33.72157 | 150.76124 | 10021 ft | 275 kts | 25° |
| 2026-05-08 08:03 | -33.70444 | 150.77130 | 10020 ft | 274 kts | 25° |
| 2026-05-08 08:03 | -33.68755 | 150.78122 | 10018 ft | 272 kts | 25° |
| 2026-05-08 08:03 | -33.67075 | 150.79108 | 10026 ft | 264 kts | 25° |
| 2026-05-08 08:03 | -33.65431 | 150.80072 | 10020 ft | 262 kts | 25° |
| 2026-05-08 08:04 | -33.63797 | 150.81030 | 10025 ft | 261 kts | 25° |
| 2026-05-08 08:04 | -33.62163 | 150.81987 | 10026 ft | 260 kts | 25° |
| 2026-05-08 08:04 | -33.60534 | 150.82942 | 10022 ft | 260 kts | 25° |
| 2026-05-08 08:04 | -33.58906 | 150.83895 | 10025 ft | 260 kts | 25° |
| 2026-05-08 08:05 | -33.57282 | 150.84846 | 10013 ft | 260 kts | 25° |
| 2026-05-08 08:05 | -33.55652 | 150.85800 | 10028 ft | 264 kts | 24° |
| 2026-05-08 08:05 | -33.53970 | 150.86782 | 10044 ft | 270 kts | 24° |
| 2026-05-08 08:05 | -33.52275 | 150.87774 | 10038 ft | 271 kts | 25° |
| 2026-05-08 08:06 | -33.50579 | 150.88766 | 10038 ft | 271 kts | 25° |
| 2026-05-08 08:06 | -33.48901 | 150.89746 | 10033 ft | 272 kts | 25° |
| 2026-05-08 08:06 | -33.47199 | 150.90739 | 10039 ft | 272 kts | 25° |
| 2026-05-08 08:06 | -33.45492 | 150.91736 | 10035 ft | 272 kts | 25° |
| 2026-05-08 08:07 | -33.43786 | 150.92731 | 10032 ft | 273 kts | 25° |
| 2026-05-08 08:07 | -33.42079 | 150.93726 | 10036 ft | 274 kts | 25° |
| 2026-05-08 08:07 | -33.40364 | 150.94725 | 10036 ft | 274 kts | 25° |
| 2026-05-08 08:07 | -33.38649 | 150.95724 | 10040 ft | 273 kts | 25° |
| 2026-05-08 08:08 | -33.36938 | 150.96722 | 10025 ft | 274 kts | 25° |
| 2026-05-08 08:08 | -33.35216 | 150.97723 | 10028 ft | 275 kts | 26° |
| 2026-05-08 08:08 | -33.33682 | 150.99059 | 10028 ft | 274 kts | 53° |
| 2026-05-08 08:08 | -33.32847 | 151.01055 | 10042 ft | 267 kts | 83° |
| 2026-05-08 08:09 | -33.32850 | 151.03184 | 10035 ft | 256 kts | 111° |
| 2026-05-08 08:09 | -33.33600 | 151.05041 | 10030 ft | 244 kts | 136° |
| 2026-05-08 08:09 | -33.34861 | 151.06291 | 9858 ft | 231 kts | 160° |
| 2026-05-08 08:09 | -33.36358 | 151.06828 | 9609 ft | 222 kts | 175° |
| 2026-05-08 08:10 | -33.37888 | 151.07119 | 9364 ft | 223 kts | 176° |
| 2026-05-08 08:10 | -33.39433 | 151.07407 | 9012 ft | 227 kts | 175° |
| 2026-05-08 08:10 | -33.41011 | 151.07708 | 8651 ft | 231 kts | 174° |
| 2026-05-08 08:10 | -33.42527 | 151.08006 | 8348 ft | 214 kts | 175° |
| 2026-05-08 08:11 | -33.44016 | 151.08291 | 8030 ft | 217 kts | 174° |
| 2026-05-08 08:11 | -33.45502 | 151.08573 | 7682 ft | 216 kts | 174° |
| 2026-05-08 08:11 | -33.46972 | 151.08856 | 7326 ft | 213 kts | 174° |
| 2026-05-08 08:11 | -33.48428 | 151.09138 | 6973 ft | 210 kts | 175° |
| 2026-05-08 08:12 | -33.49863 | 151.09413 | 6626 ft | 207 kts | 174° |
| 2026-05-08 08:12 | -33.51262 | 151.09684 | 6259 ft | 206 kts | 173° |
| 2026-05-08 08:12 | -33.52671 | 151.09954 | 5878 ft | 203 kts | 173° |
| 2026-05-08 08:12 | -33.54040 | 151.10218 | 5517 ft | 199 kts | 173° |
| 2026-05-08 08:13 | -33.55413 | 151.10482 | 5252 ft | 199 kts | 174° |
| 2026-05-08 08:13 | -33.56777 | 151.10744 | 5056 ft | 198 kts | 173° |
| 2026-05-08 08:13 | -33.58134 | 151.11007 | 4871 ft | 197 kts | 173° |
| 2026-05-08 08:13 | -33.59483 | 151.11269 | 4644 ft | 192 kts | 174° |
| 2026-05-08 08:14 | -33.60739 | 151.11517 | 4422 ft | 174 kts | 174° |
| 2026-05-08 08:14 | -33.61931 | 151.11743 | 4198 ft | 177 kts | 173° |
| 2026-05-08 08:14 | -33.63136 | 151.11983 | 4011 ft | 170 kts | 175° |
| 2026-05-08 08:14 | -33.64315 | 151.12209 | 3811 ft | 174 kts | 175° |
| 2026-05-08 08:15 | -33.65499 | 151.12445 | 3605 ft | 175 kts | 175° |
| 2026-05-08 08:15 | -33.66661 | 151.12673 | 3460 ft | 162 kts | 175° |
| 2026-05-08 08:15 | -33.67766 | 151.12892 | 3329 ft | 163 kts | 175° |
| 2026-05-08 08:15 | -33.68894 | 151.13114 | 3198 ft | 165 kts | 175° |
| 2026-05-08 08:16 | -33.70003 | 151.13271 | 3158 ft | 157 kts | 181° |
| 2026-05-08 08:16 | -33.71113 | 151.13349 | 3241 ft | 161 kts | 181° |
| 2026-05-08 08:16 | -33.72245 | 151.13395 | 3258 ft | 166 kts | 182° |
| 2026-05-08 08:16 | -33.73374 | 151.13388 | 3383 ft | 159 kts | 185° |
| 2026-05-08 08:17 | -33.74466 | 151.13376 | 3463 ft | 154 kts | 184° |
| 2026-05-08 08:17 | -33.75521 | 151.13380 | 3570 ft | 151 kts | 183° |
| 2026-05-08 08:17 | -33.76566 | 151.13390 | 3500 ft | 150 kts | 181° |
| 2026-05-08 08:17 | -33.77604 | 151.13501 | 3450 ft | 149 kts | 177° |
| 2026-05-08 08:18 | -33.78626 | 151.13697 | 3262 ft | 149 kts | 175° |
| 2026-05-08 08:18 | -33.79628 | 151.13936 | 3113 ft | 143 kts | 174° |
| 2026-05-08 08:18 | -33.80566 | 151.14178 | 2890 ft | 137 kts | 174° |
| 2026-05-08 08:18 | -33.81484 | 151.14405 | 2634 ft | 133 kts | 178° |
| 2026-05-08 08:19 | -33.82406 | 151.14614 | 2432 ft | 136 kts | 178° |
| 2026-05-08 08:19 | -33.83330 | 151.14804 | 2296 ft | 134 kts | 180° |
| 2026-05-08 08:19 | -33.84257 | 151.15029 | 2120 ft | 139 kts | 175° |
| 2026-05-08 08:19 | -33.85196 | 151.15326 | 1885 ft | 140 kts | 177° |
| 2026-05-08 08:20 | -33.86146 | 151.15549 | 1768 ft | 138 kts | 181° |
| 2026-05-08 08:20 | -33.87097 | 151.15711 | 1507 ft | 136 kts | 181° |
| 2026-05-08 08:20 | -33.88019 | 151.15914 | 1325 ft | 134 kts | 176° |
| 2026-05-08 08:20 | -33.88950 | 151.16170 | 1068 ft | 138 kts | 178° |
| 2026-05-08 08:21 | -33.89876 | 151.16392 | 856 ft | 135 kts | 176° |
| 2026-05-08 08:21 | -33.90814 | 151.16622 | 636 ft | 136 kts | 174° |
| 2026-05-08 08:21 | -33.91707 | 151.16855 | 341 ft | 130 kts | 171° |
| 2026-05-08 08:21 | -33.92582 | 151.17074 | 169 ft | 126 kts | 173° |
| 2026-05-08 08:22 | -33.93418 | 151.17283 | 17 ft | 109 kts | 169° |
| 2026-05-08 08:22 | -33.93913 | 151.17411 | 21 ft | 41 kts | 167° |
| 2026-05-08 08:22 | -33.94115 | 151.17478 | 23 ft | 14 kts | 131° |
| 2026-05-08 08:22 | -33.94100 | 151.17581 | 21 ft | 15 kts | 64° |
| 2026-05-08 08:23 | -33.94018 | 151.17642 | 23 ft | 17 kts | 353° |
| 2026-05-08 08:23 | -33.93883 | 151.17606 | 20 ft | 23 kts | 348° |
| 2026-05-08 08:23 | -33.93759 | 151.17575 | 19 ft | 17 kts | 347° |
| 2026-05-08 08:23 | -33.93666 | 151.17583 | 21 ft | 13 kts | 28° |
| 2026-05-08 08:24 | -33.93617 | 151.17623 | 28 ft | 5 kts | 52° |
| 2026-05-08 08:24 | -33.93605 | 151.17658 | 30 ft | 5 kts | 74° |
| 2026-05-08 08:24 | -33.93600 | 151.17681 | 31 ft | 2 kts | 75° |
| 2026-05-08 08:24 | -33.93597 | 151.17697 | 31 ft | 1 kts | 76° |
| 2026-05-08 08:25 | -33.93596 | 151.17699 | 31 ft | 0 kts | 76° |